ESGG/GOT METAR and TAF weather

Enter ICAO airport designator
Station Type Date Time Source
ESGG METAR 2020/09/22 19:50 UTC NOAA

ESGG 221950Z 16005KT 4900 BR NSC 10/09 Q1006


Station Type Date Time Source
ESGG Decoded METAR 2020/09/22 19:50 UTC NOAA

Goteborg / Landvetter, Sweden (ESGG) 57-40N 012-18E
Sep 22, 2020 - 03:50 PM EDT / 2020.09.22 1950 UTC
Wind: from the SSE (160 degrees) at 6 MPH (5 KT):0
Visibility: 3 mile(s):0
Weather: mist
Temperature: 50 F (10 C)
Dew Point: 48 F (9 C)
Relative Humidity: 93%
Pressure (altimeter): 29.71 in. Hg (1006 hPa)
ob: ESGG 221950Z 16005KT 4900 BR NSC 10/09 Q1006
cycle: 20

Station Type Date Time Source
ESGG TAF 2020/09/22 18:15 UTC NOAA

TAF TAF ESGG 221730Z 2218/2318 16006KT CAVOK
BECMG 2219/2221 0400 FG VV002 PROB40 2221/2307 3000 BR SCT004
BECMG 2307/2309 22010KT CAVOK

Example: see airport list